Data for 05/03/2005

Time Sea-Level Adjusted Pressure Absolute Pressure Temperature Relative Humidity Dew Point   
(mb) (inHg) (mb) (inHg) (C) (F) (%) (C) (F)
00:05 1020 30.12 849 25.07 4.5 40.1 48 -5.7 21.8
00:10 1020 30.12 849 25.07 4.3 39.7 49 -5.6 21.9
00:15 1020 30.12 849 25.07 4.2 39.5 49 -5.6 21.9
00:20 1019 30.09 849 25.07 4.1 39.3 49 -5.7 21.7
00:25 1019 30.09 849 25.07 4 39.3 49 -5.7 21.8
00:30 1020 30.12 849 25.07 4 39.3 49 -5.7 21.8
00:35 1019 30.09 849 25.07 3.9 39.1 49 -5.8 21.6
00:40 1019 30.09 849 25.07 3.9 39.1 49 -5.8 21.6
00:45 1019 30.09 849 25.07 3.9 39 50 -5.7 21.8
00:50 1019 30.09 849 25.07 3.9 39 50 -5.6 21.9
00:55 1019 30.09 849 25.07 3.9 39 49 -5.8 21.5
01:00 1019 30.09 849 25.07 3.8 38.9 50 -5.6 21.9
01:05 1019 30.09 848 25.04 3.7 38.6 51 -5.6 21.9
01:10 1019 30.09 849 25.07 3.6 38.5 51 -5.7 21.8
01:15 1019 30.09 848 25.04 3.4 38.2 51 -5.7 21.8
01:20 1019 30.09 848 25.04 3.4 38.1 51 -5.8 21.6
01:25 1019 30.09 848 25.04 3.3 37.9 53 -5.5 22.1
01:30 1019 30.09 848 25.04 3.1 37.5 53 -5.6 22
01:35 1019 30.09 848 25.04 3 37.5 53 -5.7 21.7
01:40 1019 30.09 848 25.04 3.3 37.9 52 -5.8 21.6
01:45 1019 30.09 848 25.04 3.3 37.9 52 -5.6 21.8
01:50 1019 30.09 848 25.04 3.2 37.7 53 -5.6 21.9
01:55 1019 30.09 848 25.04 3.1 37.6 53 -5.6 21.9
02:00 1019 30.09 848 25.04 3.1 37.6 53 -5.6 22
02:05 1019 30.09 848 25.04 3.1 37.5 53 -5.5 22
02:10 1019 30.09 848 25.04 3 37.4 53 -5.6 21.9
02:15 1019 30.09 848 25.04 3 37.4 54 -5.5 22.2
02:20 1019 30.09 848 25.04 2.8 37.1 54 -5.5 22.1
02:25 1019 30.09 848 25.04 2.7 36.9 55 -5.5 22.1
02:30 1019 30.09 848 25.04 2.6 36.8 57 -5.1 22.8
02:35 1019 30.09 848 25.04 2.1 35.8 58 -5.2 22.7
02:40 1019 30.09 848 25.04 2.1 35.8 57 -5.5 22.1
02:45 1019 30.09 848 25.04 2.3 36.2 56 -5.6 22
02:50 1019 30.09 848 25.04 2.5 36.5 56 -5.5 22.1
02:55 1019 30.09 848 25.04 2.5 36.5 56 -5.4 22.3
03:00 1019 30.09 848 25.04 2.3 36.2 57 -5.2 22.6
03:05 1019 30.09 848 25.04 2 35.7 59 -5.2 22.6
03:10 1019 30.09 848 25.04 2 35.7 59 -5.2 22.7
03:15 1019 30.09 848 25.04 2 35.7 59 -5.2 22.6
03:20 1019 30.09 848 25.04 1.9 35.4 59 -5.3 22.4
03:25 1019 30.09 848 25.04 1.9 35.5 59 -5.2 22.7
03:30 1019 30.09 848 25.04 1.8 35.2 60 -5.2 22.6
03:35 1019 30.09 848 25.04 1.6 34.9 60 -5.3 22.4
03:40 1019 30.09 848 25.04 1.6 34.8 60 -5.3 22.4
03:45 1019 30.09 848 25.04 1.6 34.8 60 -5.3 22.5
03:50 1019 30.09 848 25.04 1.6 34.8 61 -5.2 22.6
03:55 1019 30.09 848 25.04 1.6 34.9 60 -5.3 22.4
04:00 1019 30.09 848 25.04 1.7 35.1 60 -5.3 22.5
04:05 1019 30.09 848 25.04 1.7 35 60 -5.3 22.4
04:10 1019 30.09 848 25.04 1.7 35 61 -5.1 22.8
04:15 1019 30.09 848 25.04 1.6 34.8 61 -5.2 22.7
04:20 1019 30.09 848 25.04 1.6 34.9 61 -5.2 22.7
04:25 1019 30.09 848 25.04 1.5 34.7 61 -5.3 22.5
04:30 1019 30.09 848 25.04 1.5 34.6 61 -5.2 22.6
04:35 1019 30.09 848 25.04 1.5 34.8 61 -5.3 22.5
04:40 1019 30.09 848 25.04 1.6 34.8 61 -5.2 22.6
04:45 1019 30.09 848 25.04 1.5 34.8 61 -5.3 22.5
04:50 1019 30.09 848 25.04 1.4 34.6 61 -5.2 22.6
04:55 1019 30.09 848 25.04 1.3 34.3 62 -5.3 22.4
05:00 1019 30.09 848 25.04 1.2 34.1 62 -5.3 22.5
05:05 1019 30.09 848 25.04 1.1 34 62 -5.3 22.5
05:10 1019 30.09 848 25.04 1.1 34 63 -5.2 22.7
05:15 1019 30.09 848 25.04 1 33.7 63 -5.2 22.6
05:20 1019 30.09 848 25.04 0.9 33.6 63 -5.3 22.5
05:25 1019 30.09 848 25.04 1 33.8 63 -5.4 22.4
05:30 1019 30.09 848 25.04 1 33.8 63 -5.3 22.5
05:35 1019 30.09 848 25.04 1.1 33.9 63 -5.2 22.6
05:40 1019 30.09 848 25.04 1.1 33.9 63 -5.2 22.7
05:45 1019 30.09 848 25.04 1 33.9 64 -5 22.9
05:50 1019 30.09 848 25.04 0.7 33.2 65 -5.1 22.9
05:55 1019 30.09 848 25.04 0.7 33.2 65 -5.2 22.7
06:00 1019 30.09 848 25.04 0.7 33.2 65 -5.2 22.7
06:05 1019 30.09 848 25.04 0.7 33.3 65 -5.2 22.7
06:10 1019 30.09 848 25.04 0.8 33.4 64 -5.2 22.7
06:15 1019 30.09 848 25.04 0.8 33.5 64 -5.2 22.6
06:20 1019 30.09 848 25.04 0.9 33.7 64 -5.2 22.6
06:25 1019 30.09 848 25.04 1.1 34 63 -5.1 22.7
06:30 1019 30.09 848 25.04 1.4 34.5 61 -5.2 22.6
06:35 1019 30.09 848 25.04 1.4 34.6 62 -5 23
06:40 1019 30.09 848 25.04 1.4 34.5 62 -5 22.9
06:45 1019 30.09 848 25.04 1.5 34.8 62 -5 23
06:50 1019 30.09 848 25.04 1.7 35 61 -5 22.9
06:55 1019 30.09 848 25.04 1.9 35.4 61 -5 23.1
07:00 1019 30.09 848 25.04 1.9 35.4 60 -5 22.9
07:05 1019 30.09 848 25.04 2.1 35.8 59 -5 23
07:10 1019 30.09 848 25.04 2.2 35.9 60 -4.9 23.2
07:15 1019 30.09 848 25.04 2.3 36.1 60 -4.8 23.4
07:20 1019 30.09 848 25.04 2.4 36.3 59 -4.8 23.3
07:25 1019 30.09 848 25.04 2.7 36.9 57 -5 23.1
07:30 1019 30.09 848 25.04 3.1 37.6 55 -5.1 22.9
07:35 1019 30.09 848 25.04 3.4 38.1 56 -4.6 23.7
07:40 1019 30.09 848 25.04 3.5 38.3 56 -4.4 24.1
07:45 1019 30.09 848 25.04 3.7 38.6 56 -4.3 24.2
07:50 1019 30.09 848 25.04 3.8 38.9 56 -4.2 24.4
07:55 1019 30.09 848 25.04 4.4 39.9 54 -4.2 24.5
08:00 1019 30.09 848 25.04 4.6 40.2 53 -4.1 24.7
08:05 1019 30.09 848 25.04 5 41 53 -3.8 25.1
08:10 1019 30.09 848 25.04 5.4 41.7 51 -3.9 25
08:15 1019 30.09 848 25.04 5.7 42.3 48 -4.3 24.3
08:20 1019 30.09 848 25.04 6 42.7 48 -4.3 24.3
08:25 1019 30.09 848 25.04 6 42.8 49 -3.9 25
08:30 1019 30.09 848 25.04 5.7 42.3 49 -4.3 24.3
08:35 1019 30.09 848 25.04 5.8 42.4 48 -4.4 24.1
08:40 1019 30.09 848 25.04 6 42.7 47 -4.6 23.7
08:45 1019 30.09 848 25.04 6.3 43.3 48 -4 24.7
08:50 1019 30.09 848 25.04 6.1 43 47 -4.4 24.1
08:55 1019 30.09 848 25.04 6.8 44.2 44 -4.5 23.9
09:00 1019 30.09 848 25.04 7.6 45.7 43 -4.3 24.3
09:05 1019 30.09 848 25.04 7.6 45.8 42 -4.5 23.9
09:10 1019 30.09 848 25.04 8 46.4 42 -4.2 24.4
09:15 1019 30.09 848 25.04 8.1 46.5 41 -4.2 24.4
09:20 1019 30.09 848 25.04 8.7 47.6 40 -4.2 24.4
09:25 1019 30.09 848 25.04 9 48.2 38 -4.5 24
09:30 1019 30.09 848 25.04 9.6 49.3 37 -4.4 24.2
09:35 1019 30.09 848 25.04 10.1 50.1 36 -4.2 24.4
09:40 1019 30.09 848 25.04 9.9 49.7 37 -4 24.8
09:45 1018 30.06 848 25.04 10.1 50.3 35 -4.5 23.9
09:50 1018 30.06 848 25.04 10.4 50.7 36 -3.9 25
09:55 1018 30.06 848 25.04 10.1 50.1 37 -3.8 25.1
10:00 1018 30.06 848 25.04 10 50.1 36 -4.2 24.4
10:05 1018 30.06 848 25.04 10.3 50.5 36 -4.1 24.7
10:10 1018 30.06 847 25.01 10.1 50.1 38 -3.7 25.4
10:15 1018 30.06 847 25.01 10.7 51.2 37 -3.4 25.8
10:20 1018 30.06 847 25.01 11 51.8 35 -3.8 25.1
10:25 1018 30.06 847 25.01 11.1 52 34 -4 24.8
10:30 1018 30.06 847 25.01 11.3 52.3 34 -3.9 24.9
10:35 1018 30.06 847 25.01 11.5 52.7 33 -4.1 24.7
10:40 1018 30.06 847 25.01 11.8 53.2 33 -3.9 25
10:45 1018 30.06 847 25.01 10.9 51.7 35 -3.8 25.1
10:50 1018 30.06 847 25.01 10.7 51.3 35 -4.2 24.5
10:55 1018 30.06 847 25.01 11.2 52.2 34 -4 24.8
11:00 1018 30.06 847 25.01 11.6 52.9 33 -3.9 25
11:05 1018 30.06 847 25.01 10.9 51.6 35 -3.8 25.1
11:10 1018 30.06 847 25.01 11.3 52.4 33 -4.2 24.4
11:15 1018 30.06 847 25.01 11.8 53.3 33 -3.9 24.9
11:20 1018 30.06 847 25.01 12.3 54.1 34 -2.9 26.7
11:25 1018 30.06 847 25.01 12.3 54.1 33 -3.6 25.6
11:30 1018 30.06 847 25.01 12.7 54.8 33 -3.1 26.3
11:35 1018 30.06 847 25.01 13 55.4 33 -2.7 27.2
11:40 1018 30.06 847 25.01 13 55.4 34 -2.4 27.7
11:45 1018 30.06 847 25.01 12.9 55.2 35 -2.1 28.2
11:50 1018 30.06 847 25.01 12 53.6 35 -3 26.5
11:55 1018 30.06 847 25.01 13.2 55.7 33 -2.6 27.3
12:00 1018 30.06 847 25.01 13.8 56.9 31 -2.7 27.1
12:05 1018 30.06 847 25.01 14.4 57.9 30 -2.8 26.9
12:10 1017 30.03 847 25.01 13.8 56.8 31 -2.8 26.9
12:15 1017 30.03 847 25.01 13.3 55.9 31 -3.4 25.9
12:20 1017 30.03 847 25.01 13.3 55.9 31 -3.5 25.7
12:25 1017 30.03 846 24.98 14.4 57.9 30 -2.7 27.1
12:30 1017 30.03 847 25.01 14.2 57.6 30 -3.1 26.3
12:35 1017 30.03 846 24.98 14.3 57.8 30 -3.2 26.3
12:40 1017 30.03 846 24.98 14.9 58.8 29 -2.9 26.9
12:45 1017 30.03 846 24.98 15 59.1 30 -2.2 28
12:50 1017 30.03 846 24.98 15.5 59.9 29 -2.6 27.3
12:55 1017 30.03 846 24.98 15.9 60.7 28 -2.3 27.9
13:00 1017 30.03 846 24.98 15.6 60 29 -2.2 28
13:05 1017 30.03 846 24.98 14.8 58.6 31 -2 28.5
13:10 1017 30.03 846 24.98 15.1 59.1 30 -2.3 27.9
13:15 1017 30.03 846 24.98 15.6 60.1 29 -2.4 27.7
13:20 1017 30.03 846 24.98 15.1 59.1 31 -1.9 28.5
13:25 1017 30.03 846 24.98 15.7 60.2 30 -1.8 28.7
13:30 1017 30.03 846 24.98 16.2 61.1 29 -1.7 28.9
13:35 1017 30.03 846 24.98 16.3 61.4 28 -2 28.4
13:40 1017 30.03 846 24.98 16.3 61.4 30 -1.2 29.9
13:45 1017 30.03 846 24.98 15.8 60.4 31 -1.4 29.5
13:50 1017 30.03 846 24.98 15.6 60 32 -1.1 30
13:55 1017 30.03 846 24.98 14.9 58.8 31 -1.9 28.6
14:00 1017 30.03 846 24.98 14.5 58 33 -1.5 29.3
14:05 1017 30.03 846 24.98 13.8 56.8 46 2.6 36.6
14:10 1017 30.03 846 24.98 12.3 54.2 52 2.9 37.2
14:15 1017 30.03 846 24.98 11.6 52.8 56 3 37.5
14:20 1017 30.03 846 24.98 11.3 52.4 58 3.3 38
14:25 1017 30.03 847 25.01 11.1 51.9 61 4 39.2
14:30 1017 30.03 847 25.01 10.6 51.1 66 4.6 40.2
14:35 1018 30.06 847 25.01 10.2 50.4 73 5.5 42
14:40 1018 30.06 847 25.01 10.1 50.2 72 5.3 41.6
14:45 1018 30.06 847 25.01 10.3 50.5 72 5.4 41.8
14:50 1018 30.06 847 25.01 10.4 50.6 73 5.7 42.3
14:55 1018 30.06 847 25.01 10.7 51.3 68 5.2 41.3
15:00 1018 30.06 847 25.01 11 51.8 68 5.4 41.8
15:05 1017 30.03 847 25.01 11.5 52.7 65 5.1 41.3
15:10 1017 30.03 847 25.01 12 53.5 58 3.9 39
15:15 1017 30.03 847 25.01 12.8 55 54 3.7 38.7
15:20 1017 30.03 846 24.98 13.4 56.1 54 4.4 40
15:25 1017 30.03 846 24.98 12.6 54.8 55 4 39.2
15:30 1017 30.03 846 24.98 12.1 53.8 61 4.9 40.8
15:35 1017 30.03 846 24.98 13.1 55.5 51 3.2 37.8
15:40 1017 30.03 846 24.98 13.6 56.5 47 2.7 36.8
15:45 1017 30.03 846 24.98 12.6 54.7 53 3.3 38
15:50 1017 30.03 846 24.98 12.7 54.9 50 2.7 36.8
15:55 1017 30.03 846 24.98 13.1 55.6 48 2.6 36.6
16:00 1017 30.03 846 24.98 13.3 55.9 50 3.3 37.9
16:05 1017 30.03 846 24.98 12.6 54.7 54 3.7 38.7
16:10 1017 30.03 846 24.98 12.3 54.1 53 3.1 37.5
16:15 1016 30 846 24.98 12.8 55.1 50 2.8 37
16:20 1016 30 846 24.98 13.7 56.6 48 2.8 37
16:25 1016 30 846 24.98 13.5 56.3 47 2.5 36.5
16:30 1016 30 846 24.98 13.2 55.7 48 2.5 36.5
16:35 1016 30 845 24.95 13.8 56.9 45 2.1 35.7
16:40 1016 30 845 24.95 14.3 57.7 42 1.7 35
16:45 1016 30 845 24.95 15.2 59.3 41 2.2 35.9
16:50 1016 30 845 24.95 14.7 58.5 41 1.8 35.2
16:55 1016 30 845 24.95 15.1 59.3 42 2.4 36.3
17:00 1016 30 845 24.95 14.7 58.4 44 2.7 36.9
17:05 1016 30 845 24.95 14 57.1 45 2.3 36.2
17:10 1016 30 845 24.95 14 57.2 44 2.1 35.8
17:15 1016 30 845 24.95 14 57.1 44 1.9 35.5
17:20 1015 29.97 845 24.95 14.8 58.7 41 1.8 35.2
17:25 1015 29.97 845 24.95 15.3 59.5 38 1.3 34.3
17:30 1015 29.97 845 24.95 15.8 60.4 38 1.6 34.9
17:35 1015 29.97 845 24.95 15.2 59.4 39 1.5 34.8
17:40 1015 29.97 845 24.95 15.2 59.3 39 1.4 34.6
17:45 1015 29.97 845 24.95 15.7 60.2 35 0.5 32.9
17:50 1015 29.97 845 24.95 16.1 61 34 0.5 32.8
17:55 1015 29.97 845 24.95 16.2 61.2 34 0.5 33
18:00 1015 29.97 845 24.95 15.7 60.2 36 0.6 33.1
18:05 1015 29.97 844 24.92 15.7 60.2 36 0.8 33.5
18:10 1015 29.97 844 24.92 15.2 59.4 37 0.6 33
18:15 1015 29.97 844 24.92 15.5 59.8 35 0.4 32.6
18:20 1015 29.97 844 24.92 14.9 58.8 39 1 33.8
18:25 1015 29.97 844 24.92 14.8 58.6 39 0.9 33.7
18:30 1015 29.97 844 24.92 14.8 58.6 38 0.9 33.5
18:35 1015 29.97 844 24.92 14.8 58.6 38 0.9 33.5
18:40 1015 29.97 844 24.92 14.9 58.8 38 0.9 33.6
18:45 1015 29.97 844 24.92 14.6 58.3 39 1 33.9
18:50 1015 29.97 844 24.92 14 57.3 41 1.1 34
18:55 1015 29.97 844 24.92 13.6 56.4 42 1 33.8
19:00 1015 29.97 844 24.92 13.6 56.4 43 1.2 34.2
19:05 1015 29.97 844 24.92 13.3 56 43 1 33.9
19:10 1015 29.97 844 24.92 13.3 56 43 1.1 33.9
19:15 1015 29.97 844 24.92 13.7 56.7 42 1.2 34.1
19:20 1015 29.97 844 24.92 13.7 56.7 42 1.3 34.3
19:25 1015 29.97 844 24.92 13.7 56.6 43 1.3 34.4
19:30 1015 29.97 844 24.92 13.7 56.7 44 1.7 35.1
19:35 1015 29.97 845 24.95 12.9 55.1 56 4.3 39.7
19:40 1016 30 845 24.95 11 51.7 67 5.1 41.2
19:45 1016 30 845 24.95 9.1 48.3 71 4.1 39.3
19:50 1016 30 845 24.95 9 48.1 76 4.9 40.8
19:55 1016 30 845 24.95 9.2 48.6 74 4.8 40.7
20:00 1016 30 845 24.95 9.3 48.8 66 3.3 37.9
20:05 1016 30 845 24.95 9.8 49.7 62 2.8 37.1
20:10 1016 30 845 24.95 10.2 50.3 58 2.4 36.3
20:15 1016 30 845 24.95 10.2 50.3 58 2.4 36.3
20:20 1016 30 845 24.95 10.1 50.2 63 3.4 38.1
20:25 1016 30 845 24.95 10.2 50.4 61 3 37.5
20:30 1016 30 845 24.95 10.3 50.5 56 1.9 35.5
20:35 1015 29.97 845 24.95 10.2 50.4 61 3 37.4
20:40 1015 29.97 845 24.95 10.1 50.1 58 2.2 36
20:45 1016 30 845 24.95 10 50 60 2.6 36.7
20:50 1016 30 845 24.95 9.5 49.1 65 3.4 38
20:55 1016 30 845 24.95 9 48.1 69 3.6 38.4
21:00 1016 30 845 24.95 8.7 47.7 69 3.5 38.2
21:05 1016 30 845 24.95 8.4 47.1 71 3.4 38.1
21:10 1016 30 845 24.95 8.1 46.5 73 3.6 38.4
21:15 1016 30 845 24.95 7.6 45.7 72 2.9 37.1
21:20 1016 30 845 24.95 7.8 46 73 3.2 37.8
21:25 1016 30 845 24.95 7.8 46 73 3.3 37.9
21:30 1016 30 845 24.95 7.6 45.8 73 3.2 37.8
21:35 1016 30 845 24.95 7.5 45.5 76 3.5 38.3
21:40 1016 30 845 24.95 7.3 45.2 77 3.5 38.3
21:45 1016 30 845 24.95 7.2 45 77 3.4 38.2
21:50 1016 30 845 24.95 7.1 44.7 79 3.7 38.6
21:55 1016 30 846 24.98 6.9 44.3 79 3.4 38.2
22:00 1016 30 845 24.95 6.8 44.3 79 3.4 38.1
22:05 1016 30 845 24.95 6.7 44.1 80 3.6 38.4
22:10 1016 30 845 24.95 6.5 43.7 81 3.4 38.2
22:15 1016 30 846 24.98 6.5 43.7 79 3.1 37.7
22:20 1016 30 846 24.98 6.7 44.1 77 3 37.3
22:25 1016 30 846 24.98 7 44.5 76 3 37.5
22:30 1017 30.03 846 24.98 7 44.5 79 3.6 38.6
22:35 1017 30.03 846 24.98 7 44.7 78 3.5 38.3
22:40 1017 30.03 846 24.98 7.2 44.9 78 3.6 38.6
22:45 1017 30.03 846 24.98 7.3 45.1 77 3.6 38.4
22:50 1017 30.03 846 24.98 7.1 44.9 77 3.4 38.1
22:55 1017 30.03 846 24.98 6.9 44.4 80 3.8 38.8
23:00 1017 30.03 846 24.98 6.5 43.6 81 3.5 38.3
23:05 1017 30.03 846 24.98 6.6 43.9 78 3.1 37.5
23:10 1017 30.03 846 24.98 6.7 44.1 75 2.7 36.8
23:15 1017 30.03 846 24.98 6.8 44.3 78 3.3 38
23:20 1017 30.03 846 24.98 6.8 44.2 77 3 37.4
23:25 1017 30.03 846 24.98 6.7 44 78 3.2 37.7
23:30 1017 30.03 846 24.98 6.6 44 80 3.4 38.2
23:35 1017 30.03 846 24.98 6.4 43.4 82 3.5 38.3
23:40 1017 30.03 846 24.98 6.1 43 83 3.4 38.1
23:45 1017 30.03 846 24.98 6.1 42.9 82 3.3 37.9
23:50 1017 30.03 846 24.98 6.2 43.2 82 3.3 38
23:55 1017 30.03 846 24.98 6.3 43.3 82 3.4 38.1
24:00 1017 30.03 846 24.98 6.2 43.2 83 3.5 38.3